x

Bay Of Campeche - 214 Nm Ne Of Veracruz, Mx (42055) Wave Buoy

5:50am - Fri 6th May 2016 All times are UTC.

  • Sig Wave height 3.0ft
  • Swell Direction
  • Peak Period 7s
  • Average Period 5s
  • Wind
    2mph, 7mph gusts
  • Sea Temp 79°f
  • Air Temp 76°f
  • Sea Pressure 1016.4mb

More Historic Weather Station data

Upgrade to MSW Pro to gain access to the past 30 days of data for over 8000 Wavebouys and Weather Stations around the globe.

Join Pro

Comparision Forecast

View Surf forecast
   
Fri 05/06 5:50am 3ft 7s 5s 2 7 mph 1016.4mb 79f 76f
4:50am 3ft 7s 5s 7 9 mph 1016.5mb 79f 76f
3:50am 3ft 7s 5s 9 11 mph 1016.3mb 79f 77f
2:50am 3ft 7s 5s 9 13 mph 1015.8mb 79f 77f
1:50am 3ft 7s 5s 11 13 mph 1015.2mb 79f 77f
12:50am 3.5ft 7s 5s 11 16 mph 1014.6mb 79f 77f
Thu 05/05 11:50pm 3.5ft 7s 5s 11 16 mph 1014.5mb 80f 77f
10:50pm 3.5ft 7s 5s 9 13 mph 1014.5mb 80f 77f
9:50pm 3.5ft 7s 5s 11 13 mph 1014.8mb 80f 77f
8:50pm 3ft 7s 5s 9 13 mph 1015.7mb 80f 77f
7:50pm 3.5ft 6s 5s 11 13 mph 1016.2mb 79f 76f
6:50pm 3.5ft 7s 5s 11 13 mph 1016.8mb 79f 76f
5:50pm 3.5ft 7s 5s 13 16 mph 1017.1mb 79f 76f
4:50pm 3.5ft 7s 5s 16 20 mph 1017.4mb 79f 76f
3:50pm 4ft 7s 5s 16 20 mph 1017.3mb 79f 76f
2:50pm 4.5ft 7s 5s 16 18 mph 1016.7mb 79f 76f
1:50pm 4ft 7s 5s 16 18 mph 1016.6mb 79f 76f
12:50pm 4ft 7s 5s 13 18 mph 1016.1mb 79f 76f
11:50am 4.5ft 7s 5s 13 18 mph 1015.5mb 79f 76f
10:50am 4.5ft 7s 5s 13 16 mph 1015.6mb 79f 76f
9:50am 4.5ft 7s 5s 13 16 mph 1015.3mb 79f 76f
8:50am 4.5ft 7s 5s 13 16 mph 1015.1mb 79f 76f
7:50am 5ft 7s 5s 13 18 mph 1015.1mb 79f 76f
6:50am 5ft 7s 5s 13 18 mph 1015.4mb 79f 77f
5:50am 5ft 7s 5s 16 18 mph 1015.8mb 79f 77f
4:50am 5.5ft 7s 5s 16 20 mph 1016mb 79f 77f
3:50am 5.5ft 7s 5s 18 20 mph 1015.6mb 79f 78f
2:50am 5ft 7s 5s 18 22 mph 1015mb 79f 78f
1:50am 5ft 6s 5s 20 25 mph 1014.5mb 80f 78f
12:50am 5ft 6s 5s 20 22 mph 1014mb 80f 78f
Wed 05/04 11:50pm 5ft 6s 5s 20 25 mph 1013.7mb 80f 78f
10:50pm 4.5ft 7s 5s 20 25 mph 1013.4mb 80f 78f
9:50pm 4.5ft 6s 5s 22 27 mph 1013.3mb 80f 79f
8:50pm 4.5ft 6s 5s 20 25 mph 1013.1mb 80f 79f
7:50pm 4.5ft 7s 5s 18 22 mph 1013.9mb 80f 79f
6:50pm 4.5ft 6s 5s 18 20 mph 1014.1mb 80f 79f
5:50pm 4.5ft 6s 5s 16 18 mph 1014.6mb 80f 79f
4:50pm 4.5ft 6s 5s 18 20 mph 1014.5mb 80f 79f
3:50pm 4.5ft 6s 5s 18 20 mph 1014.5mb 80f 79f
2:50pm 4.5ft 6s 5s 20 22 mph 1014mb 80f 79f
1:50pm 4.5ft 6s 5s 16 20 mph 1013.7mb 80f 78f
12:50pm 4ft 6s 5s 20 22 mph 1013.1mb 80f 79f
11:50am 4.5ft 6s 5s 18 22 mph 1012.4mb 80f 79f
10:50am 4.5ft 7s 5s 18 20 mph 1011.6mb 80f 79f
9:50am 4.5ft 7s 5s 16 18 mph 1010.7mb 80f 79f
8:50am 4.5ft 7s 5s 18 20 mph 1010.7mb 80f 79f
7:50am 4.5ft 7s 5s 16 18 mph 1011.3mb 80f 79f
6:50am 4.5ft 7s 5s 16 20 mph 1011.7mb 80f 80f
5:50am 4.5ft 7s 5s 16 18 mph 1012.3mb 80f 80f
4:50am 4.5ft 7s 5s 18 20 mph 1012.6mb 80f 80f
3:50am 4.5ft 7s 5s 20 22 mph 1012.1mb 80f 80f
2:50am 3.5ft 8s 5s 16 18 mph 1012.5mb 80f 80f
1:50am 3.5ft 7s 5s 13 16 mph 1011.9mb 80f 80f
12:50am 3.5ft 8s 5s 16 18 mph 1011.3mb 81f 80f
Tue 05/03 11:50pm 3.5ft 8s 5s 16 20 mph 1010.7mb 81f 80f
10:50pm 3.5ft 7s 5s 13 16 mph 1010.6mb 81f 81f
9:50pm 3.5ft 7s 5s 13 16 mph 1010.6mb 81f 81f
8:50pm 3.5ft 7s 5s 13
mph
1010.9mb 81f 81f
7:50pm 3.5ft 6s 5s 13 16 mph 1011.2mb 81f 81f
6:50pm 4ft 8s 6s 13 18 mph 1011.8mb 81f 80f
5:50pm 4ft 7s 6s 9 11 mph 1012.6mb 81f 81f
4:50pm 4.5ft 7s 6s 7
mph
1013.2mb 81f 81f
3:50pm 3.5ft 8s 6s  -  2 mph 1013.3mb 80f 81f
2:50pm 3.5ft 6s 5s 7
mph
1013mb 80f 80f
12:50pm 3ft 6s 5s 9
mph
1012mb 80f 80f
11:50am 3.5ft 7s 5s 11 13 mph 1011.2mb 80f 80f
10:50am 3ft 6s 5s 11 13 mph 1010.5mb 80f 80f
9:50am 3ft 6s 5s 9
mph
1010.4mb 80f 80f
8:50am 3.5ft 8s 5s 7 9 mph 1010.6mb 80f 80f
7:50am 3.5ft 7s 5s 9 11 mph 1011mb 80f 80f
6:50am 3.5ft 7s 5s 11
mph
1011.4mb 80f 80f
5:50am 3.5ft 8s 6s 11 13 mph 1012.2mb 81f 81f
4:50am 3.5ft 8s 6s 11 13 mph 1012.5mb 81f 81f
3:50am 3.5ft 7s 5s 7
mph
1012.1mb 82f 82f
2:50am 3.5ft 8s 6s 4 7 mph 1011.7mb 82f 82f
1:50am 3.5ft 8s 5s 2 4 mph 1011.1mb 82f 82f
12:50am 3.5ft 8s 5s 2 4 mph 1010.2mb 83f 82f
Mon 05/02 11:50pm 4ft 8s 6s 2
mph
1009.7mb 83f 82f
10:50pm 3.5ft 7s 5s 2
mph
1009.5mb 83f 83f
9:50pm 3.5ft 7s 5s 4
mph
1009.3mb 82f 83f
8:50pm 3ft 6s 5s 7
mph
1009.2mb 82f 82f
7:50pm 3ft 7s 5s 4 7 mph 1009.7mb 82f 82f
6:50pm 2.5ft 7s 5s 9
mph
1010.3mb 81f 82f
5:50pm 2.5ft 7s 5s 11
mph
1010.6mb 81f 82f
4:50pm 2.5ft 5s 5s 7
mph
1010.9mb 81f 81f
3:50pm 2.5ft 6s 5s 7
mph
1011.1mb 80f 81f
2:50pm 3ft 5s 5s 4 7 mph 1010.8mb 80f 80f
1:50pm 3ft 6s 5s 7
mph
1010.2mb 80f 80f
12:50pm 3ft 6s 5s 9
mph
1009.3mb 80f 80f
11:50am 3.5ft 6s 5s 9 11 mph 1008.5mb 80f 80f
10:50am 3ft 7s 5s 7 9 mph 1007.8mb 80f 80f
9:50am 3.5ft 6s 5s 9 11 mph 1007.2mb 80f 80f
8:50am 3.5ft 7s 5s 11 13 mph 1006.9mb 80f 80f
7:50am 3.5ft 7s 5s 11 13 mph 1007.3mb 80f 80f
6:50am 3.5ft 7s 5s 13 16 mph 1007.6mb 80f 80f